createdAt,value
2022-08-03T00:00:24.130Z,22.86
2022-08-03T00:02:50.726Z,22.83
2022-08-03T00:05:17.259Z,22.79
2022-08-03T00:07:43.742Z,22.73
2022-08-03T00:10:12.585Z,22.73
2022-08-03T00:12:39.133Z,22.66
2022-08-03T00:15:11.122Z,22.62
2022-08-03T00:17:52.795Z,22.61
2022-08-03T00:20:24.061Z,22.53
2022-08-03T00:22:50.671Z,22.43
2022-08-03T00:25:17.917Z,22.39
2022-08-03T00:27:44.777Z,22.33
2022-08-03T00:30:11.445Z,22.28
2022-08-03T00:32:38.768Z,22.25
2022-08-03T00:35:18.239Z,22.24
2022-08-03T00:37:59.213Z,22.21
2022-08-03T00:40:28.953Z,22.18
2022-08-03T00:42:59.247Z,22.17
2022-08-03T00:45:30.714Z,22.15
2022-08-03T00:47:58.214Z,22.15
2022-08-03T00:50:27.043Z,22.13
2022-08-03T00:52:55.526Z,22.10
2022-08-03T00:55:22.418Z,22.08
2022-08-03T00:57:49.402Z,22.07
2022-08-03T01:00:20.313Z,22.04
2022-08-03T01:02:49.597Z,22.00
2022-08-03T01:05:16.226Z,21.99
2022-08-03T01:07:54.634Z,21.98
2022-08-03T01:10:45.496Z,21.93
2022-08-03T01:14:02.335Z,21.91
2022-08-03T01:16:37.278Z,21.90
2022-08-03T01:19:23.042Z,21.91
2022-08-03T01:21:59.534Z,21.85
2022-08-03T01:25:05.738Z,21.82
2022-08-03T01:27:56.714Z,21.81
2022-08-03T01:30:29.695Z,21.75
2022-08-03T01:33:03.375Z,21.73
2022-08-03T01:35:42.923Z,21.73
2022-08-03T01:38:18.041Z,21.72
2022-08-03T01:40:46.926Z,21.72
2022-08-03T01:43:55.298Z,21.71
2022-08-03T01:46:06.662Z,21.68
2022-08-03T01:48:34.460Z,21.66
2022-08-03T01:51:01.070Z,21.64
2022-08-03T01:53:28.490Z,21.63
2022-08-03T01:55:57.337Z,21.60
2022-08-03T01:58:25.073Z,21.58
2022-08-03T02:00:53.486Z,21.55
2022-08-03T02:03:23.151Z,21.56
2022-08-03T02:06:11.523Z,21.53
2022-08-03T02:08:41.775Z,21.49
2022-08-03T02:11:08.689Z,21.46
2022-08-03T02:13:35.517Z,21.43
2022-08-03T02:16:05.536Z,21.41
2022-08-03T02:18:33.255Z,21.37
2022-08-03T02:21:05.478Z,21.35
2022-08-03T02:23:38.823Z,21.32
2022-08-03T02:26:09.266Z,21.30
2022-08-03T02:28:39.305Z,21.26
2022-08-03T02:31:18.054Z,21.24
2022-08-03T02:33:51.082Z,21.24
2022-08-03T02:36:25.819Z,21.26
2022-08-03T02:38:56.789Z,21.24
2022-08-03T02:41:30.733Z,21.24
2022-08-03T02:44:06.023Z,21.16
2022-08-03T02:46:38.425Z,21.13
2022-08-03T02:49:40.623Z,21.12
2022-08-03T02:51:54.692Z,21.08
2022-08-03T02:54:23.513Z,21.07
2022-08-03T02:56:51.985Z,21.04
2022-08-03T02:59:19.959Z,21.00
2022-08-03T03:01:47.086Z,20.99
2022-08-03T03:04:14.858Z,20.98
2022-08-03T03:06:42.596Z,20.96
2022-08-03T03:09:11.688Z,20.94
2022-08-03T03:11:39.264Z,20.90
2022-08-03T03:14:07.370Z,20.88
2022-08-03T03:16:36.291Z,20.89
2022-08-03T03:19:03.168Z,20.89
2022-08-03T03:21:31.085Z,20.91
2022-08-03T03:23:59.292Z,20.92
2022-08-03T03:26:25.949Z,20.92
2022-08-03T03:28:52.589Z,20.93
2022-08-03T03:31:19.231Z,20.91
2022-08-03T03:33:46.501Z,20.93
2022-08-03T03:36:12.967Z,20.93
2022-08-03T03:38:39.658Z,20.91
2022-08-03T03:41:06.498Z,20.89
2022-08-03T03:43:33.385Z,20.89
2022-08-03T03:46:01.053Z,20.86
2022-08-03T03:48:28.056Z,20.83
2022-08-03T03:50:54.858Z,20.81
2022-08-03T03:53:21.375Z,20.81
2022-08-03T03:55:57.928Z,20.79
2022-08-03T03:58:28.957Z,20.79
2022-08-03T04:00:55.676Z,20.77
2022-08-03T04:03:22.248Z,20.78
2022-08-03T04:06:07.723Z,20.79
2022-08-03T04:08:52.491Z,20.77
2022-08-03T04:11:34.674Z,20.71
2022-08-03T04:14:09.342Z,20.69
2022-08-03T04:16:43.419Z,20.68
2022-08-03T04:19:23.431Z,20.67
2022-08-03T04:21:52.850Z,20.66
2022-08-03T04:24:20.885Z,20.63
2022-08-03T04:26:54.008Z,20.68
2022-08-03T04:29:22.276Z,20.74
2022-08-03T04:31:50.644Z,20.76
2022-08-03T04:34:17.501Z,20.82
2022-08-03T04:36:58.173Z,20.85
2022-08-03T04:39:26.709Z,20.91
2022-08-03T04:42:08.222Z,21.05
2022-08-03T04:44:41.588Z,21.13
2022-08-03T04:47:08.132Z,21.20
2022-08-03T04:49:37.232Z,21.11
2022-08-03T04:52:05.293Z,21.09
2022-08-03T04:54:39.504Z,21.07
2022-08-03T04:57:06.023Z,21.09
2022-08-03T04:59:32.773Z,21.15
2022-08-03T05:01:59.351Z,21.21
2022-08-03T05:04:25.837Z,21.30
2022-08-03T05:06:55.235Z,21.46
2022-08-03T05:09:39.575Z,21.58
2022-08-03T05:12:09.724Z,21.65
2022-08-03T05:14:38.280Z,21.78
2022-08-03T05:17:05.806Z,21.91
2022-08-03T05:19:32.370Z,22.23
2022-08-03T05:21:59.012Z,22.53
2022-08-03T05:24:25.593Z,22.61
2022-08-03T05:26:52.029Z,22.69
2022-08-03T05:29:18.484Z,22.77
2022-08-03T05:31:44.934Z,22.64
2022-08-03T05:34:11.359Z,22.54
2022-08-03T05:36:37.909Z,22.46
2022-08-03T05:39:04.472Z,22.48
2022-08-03T05:41:37.252Z,22.51
2022-08-03T05:44:04.817Z,22.45
2022-08-03T05:46:31.626Z,22.48
2022-08-03T05:48:58.242Z,22.71
2022-08-03T05:51:24.937Z,22.89
2022-08-03T05:53:51.424Z,22.97
2022-08-03T05:56:22.107Z,22.95
2022-08-03T05:58:48.636Z,23.02
2022-08-03T06:01:16.826Z,23.10
2022-08-03T06:03:43.567Z,23.38
2022-08-03T06:06:11.397Z,23.61
2022-08-03T06:08:38.399Z,23.64
2022-08-03T06:11:04.889Z,23.73
2022-08-03T06:13:32.156Z,23.92
2022-08-03T06:15:58.688Z,24.14
2022-08-03T06:18:25.687Z,24.38
2022-08-03T06:20:53.141Z,24.32
2022-08-03T06:23:20.073Z,24.49
2022-08-03T06:25:47.510Z,24.47
2022-08-03T06:28:42.677Z,24.44
2022-08-03T06:31:01.579Z,24.57
2022-08-03T06:34:30.002Z,24.70
2022-08-03T06:36:15.134Z,24.93
2022-08-03T06:38:41.658Z,25.15
2022-08-03T06:41:08.170Z,25.31
2022-08-03T06:43:37.613Z,25.43
2022-08-03T06:46:05.437Z,25.58
2022-08-03T06:48:32.219Z,25.72
2022-08-03T06:50:59.152Z,25.80
2022-08-03T06:53:25.734Z,25.86
2022-08-03T06:55:55.053Z,25.87
2022-08-03T06:58:22.388Z,25.97
2022-08-03T07:00:49.158Z,25.92
2022-08-03T07:03:16.319Z,25.90
2022-08-03T07:05:43.499Z,25.97
2022-08-03T07:08:10.168Z,26.07
2022-08-03T07:10:37.011Z,26.20
2022-08-03T07:13:04.643Z,26.21
2022-08-03T07:15:53.793Z,26.09
2022-08-03T07:18:18.138Z,26.31
2022-08-03T07:20:56.795Z,26.48
2022-08-03T07:23:23.351Z,26.62
2022-08-03T07:25:50.740Z,26.64
2022-08-03T07:28:17.288Z,26.81
2022-08-03T07:30:43.785Z,26.96
2022-08-03T07:33:10.324Z,27.12
2022-08-03T07:35:36.982Z,27.33
2022-08-03T07:38:03.457Z,27.76
2022-08-03T07:40:31.791Z,28.09
2022-08-03T07:42:58.811Z,28.26
2022-08-03T07:45:26.535Z,28.40
2022-08-03T07:47:53.605Z,28.70
2022-08-03T07:50:21.042Z,28.88
2022-08-03T07:52:51.654Z,28.93
2022-08-03T07:55:20.380Z,29.07
2022-08-03T07:57:47.773Z,29.29
2022-08-03T08:00:19.444Z,29.50
2022-08-03T08:02:46.178Z,29.49
2022-08-03T08:05:12.707Z,29.69
2022-08-03T08:07:40.297Z,29.96
2022-08-03T08:10:09.844Z,30.28
2022-08-03T08:12:37.776Z,30.57
2022-08-03T08:15:04.994Z,30.73
2022-08-03T08:17:31.477Z,30.83
2022-08-03T08:19:58.025Z,30.83
2022-08-03T08:22:30.404Z,31.10
2022-08-03T08:24:58.904Z,31.39
2022-08-03T08:27:25.738Z,31.46
2022-08-03T08:29:55.278Z,31.50
2022-08-03T08:32:24.151Z,31.70
2022-08-03T08:34:50.938Z,31.89
2022-08-03T08:37:17.479Z,32.21
2022-08-03T08:39:43.906Z,32.41
2022-08-03T08:42:10.454Z,32.59
2022-08-03T08:44:36.943Z,32.76
2022-08-03T08:47:04.351Z,33.05
2022-08-03T08:49:35.825Z,33.11
2022-08-03T08:52:04.013Z,33.04
2022-08-03T08:54:52.195Z,33.35
2022-08-03T08:57:40.807Z,33.53
2022-08-03T09:00:10.311Z,33.50
2022-08-03T09:02:37.375Z,33.65
2022-08-03T09:05:07.397Z,33.80
2022-08-03T09:07:34.549Z,33.86
2022-08-03T09:10:11.727Z,33.87
2022-08-03T09:12:43.173Z,34.15
2022-08-03T09:15:17.585Z,34.42
2022-08-03T09:17:47.657Z,34.63
2022-08-03T09:20:18.057Z,34.82
2022-08-03T09:22:54.727Z,34.87
2022-08-03T09:25:28.127Z,34.76
2022-08-03T09:27:54.785Z,34.81
2022-08-03T09:30:34.327Z,35.01
2022-08-03T09:33:21.922Z,35.28
2022-08-03T09:35:54.226Z,35.34
2022-08-03T09:38:27.182Z,35.20
2022-08-03T09:40:59.545Z,35.11
2022-08-03T09:43:46.788Z,34.89
2022-08-03T09:46:13.402Z,35.06
2022-08-03T09:48:39.826Z,35.15
2022-08-03T09:51:14.041Z,35.30
2022-08-03T09:53:59.663Z,35.47
2022-08-03T09:56:47.237Z,35.77
2022-08-03T09:59:23.183Z,35.92
2022-08-03T10:01:49.709Z,36.05
2022-08-03T10:04:19.011Z,36.09
2022-08-03T10:07:01.003Z,36.40
2022-08-03T10:09:27.649Z,36.39
2022-08-03T10:11:54.685Z,36.38
2022-08-03T10:14:22.483Z,36.57
2022-08-03T10:16:50.076Z,36.67
2022-08-03T10:19:17.567Z,36.85
2022-08-03T10:21:51.016Z,36.97
2022-08-03T10:24:24.271Z,36.98
2022-08-03T10:26:51.600Z,36.89
2022-08-03T10:29:22.562Z,37.08
2022-08-03T10:31:58.246Z,37.27
2022-08-03T10:34:35.358Z,37.49
2022-08-03T10:37:08.001Z,37.67
2022-08-03T10:39:35.953Z,37.77
2022-08-03T10:42:03.822Z,37.79
2022-08-03T10:44:39.861Z,37.87
2022-08-03T10:47:10.404Z,37.78
2022-08-03T10:49:37.960Z,38.00
2022-08-03T10:52:31.694Z,38.16
2022-08-03T10:55:10.873Z,38.31
2022-08-03T10:57:42.254Z,38.24
2022-08-03T11:00:16.379Z,38.34
2022-08-03T11:03:09.263Z,38.41
2022-08-03T11:05:39.078Z,38.61
2022-08-03T11:08:24.755Z,38.73
2022-08-03T11:10:53.901Z,38.66
2022-08-03T11:13:23.853Z,38.79
2022-08-03T11:15:53.506Z,38.89
2022-08-03T11:18:27.142Z,39.18
2022-08-03T11:20:58.643Z,38.92
2022-08-03T11:24:03.321Z,38.75
2022-08-03T11:26:32.850Z,38.87
2022-08-03T11:29:29.372Z,39.15
2022-08-03T11:31:56.115Z,38.71
2022-08-03T11:34:24.336Z,38.60
2022-08-03T11:37:21.014Z,38.79
2022-08-03T11:39:50.328Z,39.00
2022-08-03T11:42:22.882Z,39.13
2022-08-03T11:45:01.564Z,39.34
2022-08-03T11:47:32.338Z,39.00
2022-08-03T11:50:01.871Z,38.75
2022-08-03T11:52:35.762Z,38.31
2022-08-03T11:55:03.016Z,38.59
2022-08-03T11:59:17.035Z,38.67
2022-08-03T12:00:23.858Z,38.69
2022-08-03T12:03:00.172Z,38.07
2022-08-03T12:05:34.761Z,38.66
2022-08-03T12:08:03.032Z,38.71
2022-08-03T12:10:31.440Z,38.86
2022-08-03T12:12:59.768Z,38.88
2022-08-03T12:15:28.156Z,38.63
2022-08-03T12:17:57.995Z,38.71
2022-08-03T12:20:34.480Z,38.58
2022-08-03T12:23:06.802Z,38.76
2022-08-03T12:25:38.735Z,38.75
2022-08-03T12:28:36.585Z,38.92
2022-08-03T12:31:11.763Z,38.80
2022-08-03T12:34:04.915Z,38.27
2022-08-03T12:36:33.749Z,38.10
2022-08-03T12:39:03.155Z,38.32
2022-08-03T12:41:37.985Z,38.61
2022-08-03T12:44:08.948Z,38.32
2022-08-03T12:46:46.912Z,38.55
2022-08-03T12:49:17.032Z,38.37
2022-08-03T12:51:43.642Z,38.46
2022-08-03T12:54:17.295Z,38.46
2022-08-03T12:57:00.677Z,38.16
2022-08-03T12:59:32.509Z,38.14
2022-08-03T13:02:16.235Z,38.10
2022-08-03T13:04:45.802Z,38.01
2022-08-03T13:07:14.377Z,38.04
2022-08-03T13:10:03.692Z,38.45
2022-08-03T13:12:32.815Z,38.09
2022-08-03T13:15:00.575Z,38.67
2022-08-03T13:17:28.022Z,38.60
2022-08-03T13:19:54.567Z,38.43
2022-08-03T13:22:27.266Z,38.48
2022-08-03T13:24:58.322Z,38.40
2022-08-03T13:28:04.148Z,38.44
2022-08-03T13:30:12.960Z,38.29
2022-08-03T13:32:39.610Z,38.10
2022-08-03T13:35:07.510Z,37.28
2022-08-03T13:37:34.357Z,37.16
2022-08-03T13:40:02.438Z,37.22
2022-08-03T13:42:30.985Z,36.85
2022-08-03T13:44:57.818Z,37.33
2022-08-03T13:47:24.354Z,37.40
2022-08-03T13:49:59.631Z,37.67
2022-08-03T13:52:30.153Z,37.33
2022-08-03T13:54:56.706Z,37.22
2022-08-03T13:58:04.543Z,36.78
2022-08-03T14:00:10.517Z,37.00
2022-08-03T14:02:37.141Z,36.91
2022-08-03T14:05:03.907Z,36.88
2022-08-03T14:07:30.445Z,36.83
2022-08-03T14:09:57.017Z,37.04
2022-08-03T14:12:23.532Z,36.76
2022-08-03T14:14:50.063Z,37.03
2022-08-03T14:17:16.736Z,36.80
2022-08-03T14:19:52.478Z,36.52
2022-08-03T14:22:21.025Z,36.33
2022-08-03T14:24:47.517Z,36.21
2022-08-03T14:27:15.810Z,36.08
2022-08-03T14:29:42.280Z,36.11
2022-08-03T14:32:10.921Z,35.92
2022-08-03T14:34:38.813Z,35.89
2022-08-03T14:37:05.323Z,36.19
2022-08-03T14:39:58.262Z,36.14
2022-08-03T14:42:20.102Z,36.07
2022-08-03T14:44:46.682Z,35.45
2022-08-03T14:47:13.516Z,35.73
2022-08-03T14:50:36.288Z,35.57
2022-08-03T14:52:26.844Z,35.22
2022-08-03T14:54:53.385Z,35.50
2022-08-03T14:57:19.913Z,35.04
2022-08-03T14:59:55.874Z,34.89
2022-08-03T15:02:24.452Z,35.06
2022-08-03T15:04:51.378Z,35.11
2022-08-03T15:07:18.147Z,34.97
2022-08-03T15:09:44.943Z,34.86
2022-08-03T15:12:11.490Z,34.52
2022-08-03T15:14:40.276Z,34.55
2022-08-03T15:17:07.000Z,34.30
2022-08-03T15:20:03.403Z,34.02
2022-08-03T15:22:25.181Z,34.03
2022-08-03T15:25:01.959Z,33.78
2022-08-03T15:27:28.466Z,33.62
2022-08-03T15:30:05.427Z,33.43
2022-08-03T15:32:34.585Z,32.97
2022-08-03T15:35:01.634Z,33.12
2022-08-03T15:37:28.552Z,32.90
2022-08-03T15:39:59.203Z,32.90
2022-08-03T15:42:30.378Z,32.66
2022-08-03T15:44:57.194Z,32.67
2022-08-03T15:47:23.613Z,32.83
2022-08-03T15:49:50.057Z,32.96
2022-08-03T15:52:16.552Z,32.75
2022-08-03T15:54:43.101Z,32.68
2022-08-03T15:57:09.559Z,32.65
2022-08-03T15:59:36.413Z,32.62
2022-08-03T16:02:03.563Z,32.48
2022-08-03T16:04:30.202Z,32.46
2022-08-03T16:06:56.695Z,32.47
2022-08-03T16:09:43.141Z,32.45
2022-08-03T16:12:11.741Z,32.50
2022-08-03T16:14:51.729Z,32.38
2022-08-03T16:17:19.479Z,32.26
2022-08-03T16:19:46.225Z,32.26
2022-08-03T16:22:14.372Z,32.17
2022-08-03T16:24:41.317Z,32.18
2022-08-03T16:27:37.522Z,32.04
2022-08-03T16:29:54.554Z,31.97
2022-08-03T16:32:21.060Z,32.02
2022-08-03T16:34:48.148Z,31.94
2022-08-03T16:37:37.644Z,31.92
2022-08-03T16:40:02.340Z,31.80
2022-08-03T16:42:29.315Z,31.74
2022-08-03T16:44:55.815Z,31.81
2022-08-03T16:47:22.917Z,31.86
2022-08-03T16:49:52.984Z,31.92
2022-08-03T16:52:23.142Z,31.84
2022-08-03T16:54:52.698Z,31.86
2022-08-03T16:57:58.400Z,31.67
2022-08-03T17:00:12.006Z,31.65
2022-08-03T17:02:48.016Z,31.60
2022-08-03T17:05:14.820Z,31.58
2022-08-03T17:07:41.463Z,31.65
2022-08-03T17:10:13.758Z,31.28
2022-08-03T17:12:40.369Z,31.34
2022-08-03T17:15:10.739Z,31.38
2022-08-03T17:17:47.604Z,31.36
2022-08-03T17:20:29.763Z,31.39
2022-08-03T17:23:02.971Z,31.31
2022-08-03T17:25:39.927Z,31.37
2022-08-03T17:28:48.844Z,31.28
2022-08-03T17:31:31.843Z,31.32
2022-08-03T17:34:01.480Z,31.31
2022-08-03T17:36:47.604Z,31.23
2022-08-03T17:39:16.765Z,31.04
2022-08-03T17:44:42.832Z,31.04
2022-08-03T17:47:12.768Z,30.96
2022-08-03T17:49:46.140Z,30.91
2022-08-03T17:52:30.917Z,30.81
2022-08-03T17:55:57.138Z,30.75
2022-08-03T17:58:13.601Z,30.61
2022-08-03T18:01:04.298Z,30.45
2022-08-03T18:03:58.386Z,30.39
2022-08-03T18:06:30.888Z,30.36
2022-08-03T18:09:00.048Z,30.31
2022-08-03T18:11:37.275Z,30.24
2022-08-03T18:14:16.626Z,30.19
2022-08-03T18:17:05.476Z,30.14
2022-08-03T18:22:27.869Z,30.09
2022-08-03T18:24:58.946Z,30.05
2022-08-03T18:27:45.621Z,30.02
2022-08-03T18:30:14.403Z,29.92
2022-08-03T18:32:43.276Z,29.85
2022-08-03T18:38:18.889Z,29.62
2022-08-03T18:40:48.580Z,29.54
2022-08-03T18:43:17.466Z,29.49
2022-08-03T18:45:57.506Z,29.42
2022-08-03T18:48:51.865Z,29.27
2022-08-03T18:51:24.197Z,29.20
2022-08-03T18:54:12.076Z,29.08
2022-08-03T18:57:01.853Z,29.03
2022-08-03T18:59:38.209Z,28.93
2022-08-03T19:02:25.365Z,28.86
2022-08-03T19:04:54.379Z,28.81
2022-08-03T19:07:35.973Z,28.75
2022-08-03T19:12:58.605Z,28.54
2022-08-03T19:15:41.293Z,28.49
2022-08-03T19:18:21.887Z,28.42
2022-08-03T19:20:51.573Z,28.40
2022-08-03T19:23:25.146Z,28.34
2022-08-03T19:25:56.053Z,28.28
2022-08-03T19:28:29.609Z,28.19
2022-08-03T19:31:00.404Z,28.11
2022-08-03T19:33:33.205Z,28.04
2022-08-03T19:36:26.343Z,27.96
2022-08-03T19:38:57.808Z,27.89
2022-08-03T19:41:31.276Z,27.83
2022-08-03T19:44:12.909Z,27.71
2022-08-03T19:46:52.109Z,27.64
2022-08-03T19:49:19.981Z,27.56
2022-08-03T19:52:00.997Z,27.48
2022-08-03T19:54:45.424Z,27.41
2022-08-03T19:57:23.381Z,27.37
2022-08-03T19:59:52.446Z,27.36
2022-08-03T20:02:27.145Z,27.32
2022-08-03T20:04:56.967Z,27.27
2022-08-03T20:07:26.990Z,27.20
2022-08-03T20:09:56.528Z,27.12
2022-08-03T20:12:28.841Z,27.05
2022-08-03T20:14:59.168Z,26.98
2022-08-03T20:17:54.421Z,26.92
2022-08-03T20:20:19.460Z,26.85
2022-08-03T20:22:52.585Z,26.82
2022-08-03T20:25:26.567Z,26.79
2022-08-03T20:28:14.520Z,26.77
2022-08-03T20:30:44.068Z,26.72
2022-08-03T20:33:11.055Z,26.69
2022-08-03T20:35:37.926Z,26.70
2022-08-03T20:38:09.254Z,26.66
2022-08-03T20:40:36.482Z,26.62
2022-08-03T20:43:04.681Z,26.55
2022-08-03T20:46:01.206Z,26.47
2022-08-03T20:48:18.371Z,26.38
2022-08-03T20:50:49.425Z,26.33
2022-08-03T20:53:41.316Z,26.32
2022-08-03T20:56:08.425Z,26.29
2022-08-03T20:58:36.134Z,26.27
2022-08-03T21:01:03.182Z,26.20
2022-08-03T21:03:40.656Z,26.14
2022-08-03T21:06:27.548Z,26.09
2022-08-03T21:09:07.022Z,26.01
2022-08-03T21:11:42.738Z,25.97
2022-08-03T21:12:58.523Z,29.73
2022-08-03T21:13:04.251Z,30.99
2022-08-03T21:13:04.791Z,30.11
2022-08-03T21:13:08.689Z,28.58
2022-08-03T21:14:32.836Z,25.92
2022-08-03T21:17:03.595Z,25.89
2022-08-03T21:19:39.134Z,25.83
2022-08-03T21:22:22.891Z,25.77
2022-08-03T21:24:55.764Z,25.71
2022-08-03T21:27:23.816Z,25.67
2022-08-03T21:29:53.400Z,25.64
2022-08-03T21:32:32.685Z,25.61
2022-08-03T21:35:00.673Z,25.54
2022-08-03T21:37:28.314Z,25.49
2022-08-03T21:39:55.765Z,25.46
2022-08-03T21:42:25.846Z,25.44
2022-08-03T21:44:53.411Z,25.42
2022-08-03T21:47:22.717Z,25.37
2022-08-03T21:50:06.837Z,25.30
2022-08-03T21:52:40.862Z,25.25
2022-08-03T21:55:07.713Z,25.24
2022-08-03T21:57:38.377Z,25.22
2022-08-03T22:00:12.731Z,25.21
2022-08-03T22:02:42.820Z,25.19
2022-08-03T22:05:09.737Z,25.15
2022-08-03T22:07:43.301Z,25.10
2022-08-03T22:10:10.809Z,25.07
2022-08-03T22:12:37.405Z,25.04
2022-08-03T22:15:06.829Z,24.99
2022-08-03T22:17:54.824Z,24.91
2022-08-03T22:20:22.474Z,24.85
2022-08-03T22:22:55.019Z,24.83
2022-08-03T22:25:27.129Z,24.77
2022-08-03T22:27:54.256Z,24.73
2022-08-03T22:30:21.192Z,24.69
2022-08-03T22:32:52.651Z,24.65
2022-08-03T22:35:21.307Z,24.61
2022-08-03T22:37:53.740Z,24.57
2022-08-03T22:40:21.162Z,24.54
2022-08-03T22:42:49.520Z,24.53
2022-08-03T22:45:45.782Z,24.54
2022-08-03T22:48:08.135Z,24.52
2022-08-03T22:50:35.470Z,24.52
2022-08-03T22:53:02.017Z,24.49
2022-08-03T22:55:28.759Z,24.47
2022-08-03T22:57:55.911Z,24.46
2022-08-03T23:00:23.822Z,24.43
2022-08-03T23:02:51.866Z,24.40
2022-08-03T23:06:01.320Z,24.37
2022-08-03T23:08:14.955Z,24.33
2022-08-03T23:10:46.720Z,24.32
2022-08-03T23:13:16.890Z,24.27
2022-08-03T23:15:55.202Z,24.23
2022-08-03T23:18:23.635Z,24.15
2022-08-03T23:20:52.872Z,24.09
2022-08-03T23:23:20.559Z,24.04
2022-08-03T23:25:50.072Z,23.97
2022-08-03T23:28:17.896Z,23.92
2022-08-03T23:30:45.310Z,23.86
2022-08-03T23:33:14.754Z,23.82
2022-08-03T23:36:20.123Z,23.75
2022-08-03T23:38:44.764Z,23.64
2022-08-03T23:41:12.530Z,23.65
2022-08-03T23:43:50.832Z,23.60
2022-08-03T23:46:21.101Z,23.58
2022-08-03T23:48:47.589Z,23.54
2022-08-03T23:51:23.468Z,23.50
2022-08-03T23:54:06.198Z,23.47
2022-08-03T23:56:59.892Z,23.41
2022-08-03T23:59:35.571Z,23.36
